»·PEaware :: WJA5175 KLAS-KSNA

WJA5175 :: KLAS-KSNA

FLIGHT INFORMATION

Flight Status: Arrived
Operator:
Westjet Airlines
More flights by this operator :: More flights under this callsign
Pilot: Nehseem A. (13724)
Aircraft: BOEING 737-800
(B738)
More flights by this aircraft type
Origin: KLAS McCarran Intl
United States
Destination: KSNA John Wayne-Orange Co
United States
More flights between these airports :: More routes between these airports
Route: +BOACH8 WHIGG FEYLA DSNEE2
File this flight plan on PilotEdge
Remarks:
Altitude:
(Current/Filed)
28,000ft
Speed:
(Current/Filed)
475kts
Departed: 09-Jan-18 12:14 PM
Arrived: 09-Jan-18 01:08 PM
Distance/Time
Traveled:
197nm/0:54
Distance/Time
To Go:
Arrived

Flight Plot

Page will automatically refresh every two minutes.

Flight plan parsing failed; only flown route is shown


Map Options




Map Legend


Flown Route
Filed Route
Departure Airport
Arrival Airport
Navaid (VOR, NDB)
Fix

Horizontal Profiles

Position Reports

Time Latitude Longitude Heading Altitude Ground
Speed
09-Jan-18 11:26 36.080071 -115.139424 319 2188ft 0kts
09-Jan-18 11:27 36.080071 -115.139424 319 2188ft 0kts
09-Jan-18 11:28 36.080071 -115.139424 319 2188ft 0kts
09-Jan-18 11:29 36.080071 -115.139424 319 2188ft 0kts
09-Jan-18 11:30 36.080071 -115.139424 319 2188ft 0kts
09-Jan-18 11:31 36.080071 -115.139424 319 2189ft 0kts
09-Jan-18 11:32 36.080071 -115.139424 319 2189ft 0kts
09-Jan-18 11:33 36.080071 -115.139424 319 2189ft 0kts
09-Jan-18 11:34 36.080071 -115.139424 319 2189ft 0kts
09-Jan-18 11:35 36.080071 -115.139424 319 2189ft 0kts
09-Jan-18 11:36 36.080071 -115.139424 319 2189ft 0kts
09-Jan-18 11:37 36.080071 -115.139424 319 2188ft 0kts
09-Jan-18 11:38 36.080071 -115.139424 319 2188ft 0kts
09-Jan-18 11:39 36.080071 -115.139424 319 2188ft 0kts
09-Jan-18 11:40 36.080071 -115.139424 319 2188ft 0kts
09-Jan-18 11:41 36.080071 -115.139424 319 2188ft 0kts
09-Jan-18 11:42 36.080071 -115.139424 319 2188ft 0kts
09-Jan-18 11:43 36.080071 -115.139424 319 2188ft 0kts
09-Jan-18 11:44 36.080071 -115.139424 319 2188ft 0kts
09-Jan-18 11:45 36.080071 -115.139424 319 2188ft 0kts
09-Jan-18 11:46 36.080071 -115.139424 319 2188ft 0kts
09-Jan-18 11:47 36.080071 -115.139424 319 2188ft 0kts
09-Jan-18 11:48 36.080071 -115.139424 319 2188ft 0kts
09-Jan-18 11:49 36.080071 -115.139424 319 2188ft 0kts
09-Jan-18 11:50 36.080071 -115.139424 319 2188ft 0kts
09-Jan-18 11:51 36.080071 -115.139424 319 2188ft 0kts
09-Jan-18 11:52 36.080071 -115.139424 319 2188ft 0kts
09-Jan-18 11:53 36.080071 -115.139424 319 2188ft 0kts
09-Jan-18 11:54 36.080071 -115.139424 319 2188ft 0kts
09-Jan-18 11:55 36.080071 -115.139424 319 2188ft 0kts
09-Jan-18 11:56 36.080071 -115.139424 319 2188ft 0kts
09-Jan-18 11:57 36.080071 -115.139424 319 2188ft 0kts
09-Jan-18 11:58 36.080071 -115.139424 319 2188ft 0kts
09-Jan-18 11:59 36.080071 -115.139424 319 2188ft 0kts
09-Jan-18 12:00 36.080071 -115.139424 319 2188ft 0kts
09-Jan-18 12:01 36.080071 -115.139424 319 2188ft 0kts
09-Jan-18 12:02 36.079860 -115.139204 319 2188ft 2kts
09-Jan-18 12:03 36.079151 -115.138815 5 2188ft 2kts
09-Jan-18 12:04 36.079008 -115.138850 17 2188ft 0kts
09-Jan-18 12:05 36.079009 -115.138850 17 2188ft 0kts
09-Jan-18 12:06 36.079010 -115.138849 17 2188ft 0kts
09-Jan-18 12:07 36.079011 -115.138849 17 2188ft 0kts
09-Jan-18 12:08 36.079012 -115.138849 17 2188ft 0kts
09-Jan-18 12:09 36.079012 -115.138848 17 2188ft 0kts
09-Jan-18 12:10 36.079013 -115.138848 17 2188ft 0kts
09-Jan-18 12:11 36.079015 -115.138848 17 2188ft 0kts
09-Jan-18 12:12 36.079016 -115.138847 17 2188ft 0kts
09-Jan-18 12:13 36.079145 -115.138693 61 2188ft 6kts
09-Jan-18 12:14 36.078251 -115.137516 98 2188ft 2kts
09-Jan-18 12:15 36.078247 -115.134045 92 2188ft 13kts
09-Jan-18 12:16 36.078224 -115.129821 89 2188ft 16kts
09-Jan-18 12:17 36.077813 -115.122775 131 2188ft 11kts
09-Jan-18 12:18 36.077127 -115.121308 182 2188ft 0kts
09-Jan-18 12:19 36.077097 -115.121310 183 2188ft 2kts
09-Jan-18 12:20 36.076348 -115.125686 271 2189ft 61kts
09-Jan-18 12:21 36.077247 -115.174936 272 3319ft 190kts
09-Jan-18 12:22 36.077022 -115.241573 247 6158ft 201kts
09-Jan-18 12:23 36.023101 -115.278257 192 7199ft 265kts
09-Jan-18 12:24 35.950973 -115.303603 185 6991ft 254kts
09-Jan-18 12:25 35.878552 -115.312619 182 8253ft 260kts
09-Jan-18 12:26 35.807564 -115.309807 173 9747ft 258kts
09-Jan-18 12:27 35.735194 -115.301170 176 12681ft 267kts
09-Jan-18 12:28 35.666154 -115.319770 220 15291ft 276kts
09-Jan-18 12:29 35.605959 -115.392978 223 17177ft 316kts
09-Jan-18 12:30 35.545427 -115.473419 223 19719ft 326kts
09-Jan-18 12:31 35.484512 -115.555180 223 22402ft 324kts
09-Jan-18 12:32 35.422732 -115.638611 223 24463ft 334kts
09-Jan-18 12:33 35.359887 -115.723256 222 26518ft 336kts
09-Jan-18 12:34 35.297027 -115.807453 222 27851ft 349kts
09-Jan-18 12:35 35.241911 -115.881112 223 27853ft 375kts
09-Jan-18 12:36 35.170059 -115.973072 221 27848ft 373kts
09-Jan-18 12:37 35.097666 -116.064157 221 27847ft 372kts
09-Jan-18 12:38 35.025911 -116.154607 221 27845ft 371kts
09-Jan-18 12:39 34.953939 -116.244727 221 27856ft 370kts
09-Jan-18 12:40 34.883479 -116.332594 221 26124ft 350kts
09-Jan-18 12:41 34.817933 -116.416357 221 24908ft 329kts
09-Jan-18 12:42 34.752634 -116.499410 221 24863ft 344kts
09-Jan-18 12:43 34.685418 -116.582808 216 24847ft 341kts
09-Jan-18 12:44 34.612110 -116.654455 215 23104ft 332kts
09-Jan-18 12:45 34.541236 -116.723475 215 21598ft 320kts
09-Jan-18 12:46 34.474405 -116.792907 220 20099ft 314kts
09-Jan-18 12:47 34.412854 -116.865602 219 18490ft 300kts
09-Jan-18 12:48 34.354272 -116.933446 219 16780ft 282kts
09-Jan-18 12:49 34.298081 -116.998259 219 14866ft 278kts
09-Jan-18 12:50 34.236754 -117.055641 208 13438ft 277kts
09-Jan-18 12:51 34.171777 -117.102126 207 12048ft 263kts
09-Jan-18 12:52 34.108327 -117.136747 202 11996ft 254kts
09-Jan-18 12:53 34.041966 -117.171888 203 11996ft 266kts
09-Jan-18 12:54 33.983033 -117.215871 222 11981ft 241kts
09-Jan-18 12:55 33.936901 -117.279524 226 10533ft 263kts
09-Jan-18 12:56 33.888490 -117.348049 227 8732ft 270kts
09-Jan-18 12:57 33.841083 -117.414890 227 8013ft 250kts
09-Jan-18 12:58 33.807139 -117.480957 245 8006ft 218kts
09-Jan-18 12:59 33.803039 -117.551848 277 7582ft 213kts
09-Jan-18 13:00 33.824604 -117.619201 302 6645ft 232kts
09-Jan-18 13:01 33.861483 -117.684516 298 5695ft 237kts
09-Jan-18 13:02 33.870840 -117.756841 233 4685ft 225kts
09-Jan-18 13:03 33.811306 -117.779249 209 3481ft 234kts
09-Jan-18 13:04 33.773117 -117.837725 238 2868ft 216kts
09-Jan-18 13:05 33.802834 -117.862235 34 3103ft 192kts
09-Jan-18 13:06 33.848193 -117.827525 31 2994ft 194kts
09-Jan-18 13:07 33.892794 -117.792522 31 2899ft 188kts
09-Jan-18 13:08 33.900239 -117.744187 152 3085ft 180kts
09-Jan-18 13:09 33.851729 -117.754481 215 2979ft 188kts
09-Jan-18 13:10 33.807509 -117.785418 208 2781ft 181kts
09-Jan-18 13:11 33.764081 -117.813074 207 1829ft 162kts
09-Jan-18 13:12 33.728874 -117.835596 204 1139ft 136kts
09-Jan-18 13:13 33.695806 -117.856301 206 366ft 130kts
09-Jan-18 13:14 33.669928 -117.872462 210 64ft 40kts
09-Jan-18 13:15 33.667582 -117.872850 107 64ft 0kts
09-Jan-18 13:16 33.669235 -117.871067 41 64ft 22kts
09-Jan-18 13:17 33.672716 -117.867435 48 64ft 18kts

Navigation Log

Ident Type
Flight plan parsing failed, navigation log unavailable